createdAt,value
2023-03-06T00:00:48.502Z,6.90
2023-03-06T00:03:16.836Z,7.28
2023-03-06T00:05:44.539Z,7.15
2023-03-06T00:08:11.975Z,7.25
2023-03-06T00:10:40.346Z,5.97
2023-03-06T00:13:13.007Z,6.55
2023-03-06T00:15:40.347Z,6.63
2023-03-06T00:18:08.012Z,6.88
2023-03-06T00:20:36.130Z,7.03
2023-03-06T00:23:03.608Z,6.53
2023-03-06T00:25:30.898Z,6.55
2023-03-06T00:27:58.199Z,6.57
2023-03-06T00:30:25.797Z,6.78
2023-03-06T00:32:53.599Z,6.80
2023-03-06T00:35:21.109Z,6.25
2023-03-06T00:37:48.479Z,5.90
2023-03-06T00:40:18.904Z,6.35
2023-03-06T00:42:46.593Z,6.75
2023-03-06T00:45:14.515Z,6.38
2023-03-06T00:47:42.094Z,6.22
2023-03-06T00:50:10.495Z,6.43
2023-03-06T00:52:37.859Z,6.55
2023-03-06T00:55:06.278Z,6.43
2023-03-06T00:57:33.609Z,6.47
2023-03-06T01:00:02.273Z,5.95
2023-03-06T01:02:29.746Z,6.22
2023-03-06T01:04:57.303Z,6.22
2023-03-06T01:07:27.240Z,5.95
2023-03-06T01:09:54.769Z,6.47
2023-03-06T01:12:23.554Z,6.63
2023-03-06T01:14:51.585Z,5.65
2023-03-06T01:17:18.929Z,6.95
2023-03-06T01:19:46.264Z,6.78
2023-03-06T01:22:14.262Z,6.18
2023-03-06T01:24:41.514Z,6.40
2023-03-06T01:27:09.007Z,6.05
2023-03-06T01:29:36.299Z,6.20
2023-03-06T01:32:03.967Z,5.22
2023-03-06T01:34:31.345Z,6.35
2023-03-06T01:36:58.642Z,6.40
2023-03-06T01:39:25.909Z,5.70
2023-03-06T01:41:53.149Z,5.43
2023-03-06T01:44:20.418Z,6.68
2023-03-06T01:46:47.771Z,6.55
2023-03-06T01:49:27.564Z,6.15
2023-03-06T01:51:57.589Z,6.18
2023-03-06T01:54:33.557Z,5.50
2023-03-06T01:57:05.749Z,5.90
2023-03-06T01:59:37.359Z,6.50
2023-03-06T02:02:08.474Z,6.30
2023-03-06T02:04:38.970Z,5.70
2023-03-06T02:07:07.642Z,5.28
2023-03-06T02:09:36.392Z,5.60
2023-03-06T02:12:10.272Z,5.03
2023-03-06T02:14:39.269Z,6.10
2023-03-06T02:17:08.775Z,5.85
2023-03-06T02:19:57.741Z,5.60
2023-03-06T02:22:33.166Z,5.35
2023-03-06T02:25:15.783Z,5.43
2023-03-06T02:27:43.142Z,5.55
2023-03-06T02:30:15.198Z,5.15
2023-03-06T02:32:42.477Z,5.88
2023-03-06T02:35:19.496Z,5.55
2023-03-06T02:37:47.170Z,5.45
2023-03-06T02:40:18.993Z,6.50
2023-03-06T02:42:48.888Z,5.45
2023-03-06T02:45:24.365Z,4.95
2023-03-06T02:47:51.625Z,4.95
2023-03-06T02:50:18.959Z,5.30
2023-03-06T02:52:46.274Z,5.40
2023-03-06T02:55:13.685Z,5.65
2023-03-06T02:57:41.096Z,6.22
2023-03-06T03:00:10.201Z,5.50
2023-03-06T03:02:37.594Z,5.75
2023-03-06T03:05:05.412Z,5.28
2023-03-06T03:07:32.948Z,5.25
2023-03-06T03:10:00.399Z,4.72
2023-03-06T03:12:28.827Z,6.00
2023-03-06T03:14:56.791Z,5.70
2023-03-06T03:17:24.533Z,4.82
2023-03-06T03:19:52.318Z,4.95
2023-03-06T03:22:20.595Z,5.45
2023-03-06T03:24:48.264Z,5.45
2023-03-06T03:27:15.650Z,5.55
2023-03-06T03:29:43.164Z,5.45
2023-03-06T03:32:10.826Z,5.47
2023-03-06T03:34:38.288Z,5.57
2023-03-06T03:37:06.287Z,5.43
2023-03-06T03:39:33.643Z,5.43
2023-03-06T03:42:03.587Z,4.80
2023-03-06T03:44:30.967Z,5.38
2023-03-06T03:46:58.803Z,5.22
2023-03-06T03:49:26.189Z,5.43
2023-03-06T03:51:54.005Z,5.10
2023-03-06T03:54:23.273Z,5.00
2023-03-06T03:56:53.342Z,5.75
2023-03-06T03:59:25.628Z,4.68
2023-03-06T04:02:21.718Z,5.22
2023-03-06T04:05:05.059Z,4.75
2023-03-06T04:07:32.746Z,4.50
2023-03-06T04:10:00.562Z,5.10
2023-03-06T04:12:29.487Z,5.90
2023-03-06T04:14:56.763Z,4.85
2023-03-06T04:17:24.168Z,5.13
2023-03-06T04:19:52.802Z,5.05
2023-03-06T04:22:20.147Z,5.10
2023-03-06T04:24:49.836Z,5.15
2023-03-06T04:27:18.282Z,4.95
2023-03-06T04:29:45.862Z,4.95
2023-03-06T04:32:13.308Z,5.93
2023-03-06T04:34:40.588Z,5.18
2023-03-06T04:37:18.425Z,4.97
2023-03-06T04:39:46.472Z,5.07
2023-03-06T04:42:13.776Z,4.47
2023-03-06T04:44:41.043Z,4.90
2023-03-06T04:47:08.476Z,4.47
2023-03-06T04:49:36.141Z,4.25
2023-03-06T04:52:04.399Z,5.30
2023-03-06T04:54:31.765Z,5.55
2023-03-06T04:56:59.382Z,4.97
2023-03-06T04:59:26.655Z,4.40
2023-03-06T05:01:53.999Z,4.40
2023-03-06T05:04:21.407Z,4.82
2023-03-06T05:06:48.642Z,4.60
2023-03-06T05:09:15.874Z,4.55
2023-03-06T05:11:43.202Z,4.60
2023-03-06T05:14:10.534Z,4.68
2023-03-06T05:16:37.849Z,4.20
2023-03-06T05:19:05.139Z,4.63
2023-03-06T05:21:32.414Z,4.45
2023-03-06T05:23:59.793Z,4.30
2023-03-06T05:26:27.033Z,4.40
2023-03-06T05:28:55.290Z,3.90
2023-03-06T05:31:22.532Z,4.70
2023-03-06T05:33:49.700Z,5.18
2023-03-06T05:36:16.968Z,4.43
2023-03-06T05:38:44.231Z,4.75
2023-03-06T05:41:13.296Z,4.35
2023-03-06T05:43:40.677Z,4.20
2023-03-06T05:46:08.178Z,3.67
2023-03-06T05:48:37.590Z,4.30
2023-03-06T05:51:05.607Z,4.03
2023-03-06T05:53:33.346Z,5.03
2023-03-06T05:56:03.884Z,4.85
2023-03-06T05:58:32.838Z,4.45
2023-03-06T06:01:00.770Z,4.15
2023-03-06T06:03:28.069Z,4.38
2023-03-06T06:05:55.365Z,4.75
2023-03-06T06:08:22.648Z,4.18
2023-03-06T06:10:52.818Z,5.28
2023-03-06T06:13:20.616Z,4.28
2023-03-06T06:15:47.887Z,4.43
2023-03-06T06:18:15.204Z,4.40
2023-03-06T06:20:42.525Z,4.30
2023-03-06T06:23:10.963Z,4.15
2023-03-06T06:25:38.243Z,4.38
2023-03-06T06:28:06.124Z,4.43
2023-03-06T06:30:34.073Z,4.70
2023-03-06T06:33:01.378Z,4.10
2023-03-06T06:35:28.654Z,4.22
2023-03-06T06:37:56.086Z,4.70
2023-03-06T06:40:24.394Z,4.82
2023-03-06T06:42:52.640Z,3.75
2023-03-06T06:45:19.966Z,4.57
2023-03-06T06:47:49.859Z,4.03
2023-03-06T06:50:17.120Z,4.85
2023-03-06T06:52:44.394Z,4.47
2023-03-06T06:55:12.636Z,4.35
2023-03-06T06:57:40.575Z,4.03
2023-03-06T07:00:09.535Z,4.40
2023-03-06T07:02:36.821Z,4.20
2023-03-06T07:05:05.552Z,3.95
2023-03-06T07:07:38.020Z,4.40
2023-03-06T07:10:14.507Z,4.45
2023-03-06T07:12:42.375Z,4.40
2023-03-06T07:15:13.280Z,4.60
2023-03-06T07:17:40.557Z,4.07
2023-03-06T07:20:08.930Z,4.40
2023-03-06T07:22:50.004Z,4.40
2023-03-06T07:25:18.678Z,3.60
2023-03-06T07:27:52.677Z,4.05
2023-03-06T07:30:21.582Z,4.18
2023-03-06T07:32:51.725Z,4.60
2023-03-06T07:35:20.688Z,4.50
2023-03-06T07:37:48.456Z,4.30
2023-03-06T07:40:15.768Z,4.43
2023-03-06T07:42:43.203Z,4.05
2023-03-06T07:45:13.697Z,3.95
2023-03-06T07:47:41.279Z,4.10
2023-03-06T07:50:09.041Z,4.28
2023-03-06T07:52:36.481Z,3.60
2023-03-06T07:55:04.510Z,4.38
2023-03-06T07:57:31.753Z,4.03
2023-03-06T07:59:58.992Z,4.20
2023-03-06T08:02:26.302Z,4.10
2023-03-06T08:04:54.866Z,3.80
2023-03-06T08:07:22.786Z,3.88
2023-03-06T08:09:50.060Z,3.60
2023-03-06T08:12:17.349Z,4.03
2023-03-06T08:14:44.576Z,4.43
2023-03-06T08:17:11.846Z,4.00
2023-03-06T08:19:39.102Z,4.13
2023-03-06T08:22:06.649Z,4.97
2023-03-06T08:24:34.915Z,4.57
2023-03-06T08:27:02.344Z,4.10
2023-03-06T08:29:31.024Z,3.80
2023-03-06T08:31:59.326Z,4.32
2023-03-06T08:34:26.769Z,3.85
2023-03-06T08:36:54.093Z,4.10
2023-03-06T08:39:21.503Z,4.70
2023-03-06T08:41:48.731Z,4.60
2023-03-06T08:44:16.055Z,5.03
2023-03-06T08:46:43.367Z,5.55
2023-03-06T08:49:12.669Z,4.30
2023-03-06T08:51:39.975Z,4.40
2023-03-06T08:54:07.456Z,4.95
2023-03-06T08:56:34.841Z,5.20
2023-03-06T08:59:04.529Z,5.47
2023-03-06T09:01:35.115Z,5.22
2023-03-06T09:04:06.114Z,5.68
2023-03-06T09:06:35.953Z,4.75
2023-03-06T09:09:04.232Z,4.70
2023-03-06T09:11:31.704Z,4.55
2023-03-06T09:13:59.424Z,4.60
2023-03-06T09:16:26.901Z,5.13
2023-03-06T09:18:54.370Z,4.78
2023-03-06T09:21:23.086Z,5.28
2023-03-06T09:23:50.831Z,4.15
2023-03-06T09:26:18.716Z,4.55
2023-03-06T09:28:46.681Z,4.95
2023-03-06T09:31:17.729Z,4.13
2023-03-06T09:33:45.141Z,3.83
2023-03-06T09:36:18.224Z,4.13
2023-03-06T09:41:35.636Z,4.05
2023-03-06T09:44:06.286Z,3.67
2023-03-06T09:46:51.670Z,4.15
2023-03-06T09:49:23.108Z,3.67
2023-03-06T09:51:58.482Z,3.83
2023-03-06T09:54:33.614Z,4.70
2023-03-06T09:57:00.905Z,4.55
2023-03-06T09:59:28.635Z,4.25
2023-03-06T10:02:14.642Z,4.35
2023-03-06T10:04:46.301Z,3.75
2023-03-06T10:07:28.267Z,3.53
2023-03-06T10:10:01.845Z,3.72
2023-03-06T10:12:56.660Z,3.88
2023-03-06T10:15:33.437Z,3.90
2023-03-06T10:18:03.207Z,4.13
2023-03-06T10:21:07.394Z,3.58
2023-03-06T10:23:53.055Z,4.03
2023-03-06T10:26:25.314Z,3.90
2023-03-06T10:29:10.992Z,3.75
2023-03-06T10:31:49.534Z,3.58
2023-03-06T10:34:28.659Z,3.90
2023-03-06T10:37:02.493Z,3.72
2023-03-06T10:39:30.067Z,3.50
2023-03-06T10:41:57.328Z,3.97
2023-03-06T10:44:24.760Z,3.58
2023-03-06T10:46:53.692Z,3.55
2023-03-06T10:49:23.618Z,3.35
2023-03-06T10:52:00.373Z,3.63
2023-03-06T10:54:29.506Z,3.25
2023-03-06T10:56:56.882Z,3.80
2023-03-06T10:59:28.359Z,3.72
2023-03-06T11:01:58.718Z,3.83
2023-03-06T11:04:31.565Z,3.25
2023-03-06T11:07:14.518Z,3.17
2023-03-06T11:09:43.948Z,2.90
2023-03-06T11:12:26.755Z,3.00
2023-03-06T11:15:18.839Z,3.60
2023-03-06T11:17:52.694Z,3.30
2023-03-06T11:20:20.257Z,2.97
2023-03-06T11:23:05.074Z,2.85
2023-03-06T11:25:56.573Z,2.45
2023-03-06T11:28:25.713Z,2.97
2023-03-06T11:31:08.680Z,2.90
2023-03-06T11:33:46.851Z,2.90
2023-03-06T11:36:30.224Z,3.30
2023-03-06T11:41:39.545Z,2.90
2023-03-06T11:44:13.874Z,3.10
2023-03-06T11:46:48.628Z,2.72
2023-03-06T11:49:24.987Z,3.15
2023-03-06T11:52:00.270Z,3.08
2023-03-06T11:54:27.540Z,3.20
2023-03-06T11:57:04.296Z,2.70
2023-03-06T12:00:08.781Z,2.88
2023-03-06T12:03:00.250Z,3.08
2023-03-06T12:05:46.731Z,3.20
2023-03-06T12:08:25.026Z,3.10
2023-03-06T12:10:57.826Z,3.38
2023-03-06T12:13:55.010Z,3.38
2023-03-06T12:16:45.040Z,3.28
2023-03-06T12:19:31.035Z,2.90
2023-03-06T12:22:31.187Z,3.50
2023-03-06T12:25:31.175Z,2.88
2023-03-06T12:28:35.747Z,2.95
2023-03-06T12:31:25.017Z,2.35
2023-03-06T12:34:11.474Z,2.78
2023-03-06T12:36:47.625Z,2.45
2023-03-06T12:39:56.335Z,3.15
2023-03-06T12:42:38.431Z,2.65
2023-03-06T12:45:29.561Z,2.47
2023-03-06T12:47:58.045Z,2.88
2023-03-06T12:50:31.227Z,3.30
2023-03-06T12:53:03.110Z,2.90
2023-03-06T12:55:40.120Z,3.00
2023-03-06T12:58:51.066Z,2.88
2023-03-06T13:01:51.960Z,3.05
2023-03-06T13:04:45.591Z,3.38
2023-03-06T13:09:54.762Z,3.20
2023-03-06T13:12:38.447Z,3.00
2023-03-06T13:15:29.794Z,3.70
2023-03-06T13:17:57.650Z,3.50
2023-03-06T13:20:35.106Z,3.05
2023-03-06T13:23:33.384Z,3.45
2023-03-06T13:26:05.010Z,3.05
2023-03-06T13:28:50.275Z,2.88
2023-03-06T13:31:46.587Z,3.13
2023-03-06T13:34:32.232Z,2.80
2023-03-06T13:37:20.131Z,2.67
2023-03-06T13:39:56.932Z,3.05
2023-03-06T13:42:31.751Z,3.03
2023-03-06T13:45:15.109Z,2.78
2023-03-06T13:50:47.889Z,2.50
2023-03-06T13:53:36.913Z,3.10
2023-03-06T13:56:30.967Z,2.75
2023-03-06T13:59:25.877Z,2.90
2023-03-06T14:01:59.059Z,2.78
2023-03-06T14:04:38.618Z,2.38
2023-03-06T14:07:20.184Z,2.78
2023-03-06T14:09:57.288Z,2.65
2023-03-06T14:12:38.440Z,2.88
2023-03-06T14:15:20.383Z,2.80
2023-03-06T14:18:01.731Z,2.20
2023-03-06T14:20:59.472Z,2.33
2023-03-06T14:23:42.443Z,2.20
2023-03-06T14:26:22.096Z,2.25
2023-03-06T14:28:52.242Z,2.55
2023-03-06T14:31:24.563Z,2.17
2023-03-06T14:33:53.335Z,2.30
2023-03-06T14:36:24.327Z,2.35
2023-03-06T14:38:54.144Z,1.98
2023-03-06T14:41:39.697Z,2.17
2023-03-06T14:44:17.819Z,2.30
2023-03-06T14:46:47.027Z,2.08
2023-03-06T14:49:16.230Z,2.63
2023-03-06T14:51:46.850Z,2.10
2023-03-06T14:54:26.087Z,2.63
2023-03-06T14:57:06.034Z,1.83
2023-03-06T14:59:41.340Z,2.47
2023-03-06T15:02:17.596Z,2.40
2023-03-06T15:04:49.508Z,2.28
2023-03-06T15:07:22.828Z,1.88
2023-03-06T15:09:53.403Z,2.20
2023-03-06T15:12:20.836Z,2.53
2023-03-06T15:14:49.217Z,2.42
2023-03-06T15:17:19.444Z,1.95
2023-03-06T15:19:48.959Z,2.15
2023-03-06T15:22:30.838Z,1.85
2023-03-06T15:25:23.320Z,2.10
2023-03-06T15:27:56.933Z,2.47
2023-03-06T15:30:36.419Z,2.33
2023-03-06T15:33:26.561Z,2.40
2023-03-06T15:36:02.274Z,2.47
2023-03-06T15:38:37.217Z,2.05
2023-03-06T15:41:06.962Z,1.75
2023-03-06T15:43:41.387Z,2.00
2023-03-06T15:46:08.934Z,1.90
2023-03-06T15:48:36.271Z,2.42
2023-03-06T15:51:04.783Z,2.22
2023-03-06T15:53:32.701Z,2.10
2023-03-06T15:56:00.361Z,2.00
2023-03-06T15:58:33.266Z,1.67
2023-03-06T16:01:00.702Z,2.28
2023-03-06T16:03:30.958Z,2.10
2023-03-06T16:05:58.855Z,1.73
2023-03-06T16:08:26.198Z,2.13
2023-03-06T16:10:53.445Z,2.60
2023-03-06T16:13:31.231Z,1.88
2023-03-06T16:15:58.555Z,2.10
2023-03-06T16:18:25.844Z,1.92
2023-03-06T16:20:53.134Z,2.33
2023-03-06T16:23:20.322Z,2.03
2023-03-06T16:25:49.396Z,2.10
2023-03-06T16:28:16.872Z,1.67
2023-03-06T16:30:45.054Z,2.28
2023-03-06T16:33:13.372Z,2.10
2023-03-06T16:35:41.354Z,2.03
2023-03-06T16:38:10.187Z,1.75
2023-03-06T16:40:41.349Z,2.00
2023-03-06T16:43:10.609Z,2.22
2023-03-06T16:45:40.284Z,1.90
2023-03-06T16:48:10.529Z,1.77
2023-03-06T16:50:39.882Z,1.77
2023-03-06T16:53:08.054Z,2.08
2023-03-06T16:55:35.615Z,1.90
2023-03-06T16:58:03.023Z,1.92
2023-03-06T17:00:33.155Z,2.15
2023-03-06T17:03:02.410Z,1.90
2023-03-06T17:05:33.214Z,1.83
2023-03-06T17:08:00.563Z,1.27
2023-03-06T17:10:27.805Z,1.75
2023-03-06T17:12:56.420Z,1.90
2023-03-06T17:15:23.995Z,1.98
2023-03-06T17:17:52.335Z,2.38
2023-03-06T17:20:20.229Z,1.80
2023-03-06T17:22:47.538Z,1.92
2023-03-06T17:25:15.086Z,2.10
2023-03-06T17:27:42.367Z,2.00
2023-03-06T17:30:10.331Z,2.00
2023-03-06T17:32:40.799Z,2.10
2023-03-06T17:35:09.672Z,2.03
2023-03-06T17:37:37.042Z,2.20
2023-03-06T17:40:08.110Z,2.42
2023-03-06T17:42:35.424Z,2.63
2023-03-06T17:45:02.618Z,2.30
2023-03-06T17:47:29.903Z,2.53
2023-03-06T17:49:57.186Z,2.25
2023-03-06T17:52:24.400Z,2.20
2023-03-06T17:54:51.733Z,3.13
2023-03-06T17:57:18.966Z,2.97
2023-03-06T17:59:48.614Z,3.28
2023-03-06T18:02:15.929Z,2.65
2023-03-06T18:04:43.254Z,2.83
2023-03-06T18:07:10.910Z,3.05
2023-03-06T18:09:38.583Z,2.90
2023-03-06T18:12:05.991Z,2.25
2023-03-06T18:14:33.352Z,3.10
2023-03-06T18:17:00.649Z,3.42
2023-03-06T18:19:27.881Z,3.35
2023-03-06T18:21:55.148Z,3.80
2023-03-06T18:24:23.419Z,3.40
2023-03-06T18:26:50.657Z,4.07
2023-03-06T18:29:17.945Z,2.95
2023-03-06T18:31:46.931Z,3.03
2023-03-06T18:34:14.928Z,3.28
2023-03-06T18:36:43.635Z,4.70
2023-03-06T18:39:13.827Z,6.32
2023-03-06T18:41:42.070Z,5.35
2023-03-06T18:44:13.923Z,5.25
2023-03-06T18:46:41.531Z,4.38
2023-03-06T18:49:09.318Z,4.20
2023-03-06T18:51:36.613Z,4.40
2023-03-06T18:54:05.568Z,3.85
2023-03-06T18:56:33.454Z,3.80
2023-03-06T18:59:03.104Z,4.88
2023-03-06T19:01:31.450Z,5.88
2023-03-06T19:04:00.799Z,5.97
2023-03-06T19:06:28.918Z,8.00
2023-03-06T19:08:58.771Z,7.70
2023-03-06T19:11:26.906Z,7.22
2023-03-06T19:13:54.724Z,6.75
2023-03-06T19:16:24.495Z,8.50
2023-03-06T19:18:52.099Z,7.93
2023-03-06T19:21:21.883Z,8.25
2023-03-06T19:23:49.492Z,7.90
2023-03-06T19:26:20.850Z,7.13
2023-03-06T19:28:48.980Z,6.75
2023-03-06T19:31:25.165Z,7.15
2023-03-06T19:33:54.177Z,6.72
2023-03-06T19:36:27.365Z,6.35
2023-03-06T19:38:56.458Z,6.07
2023-03-06T19:41:24.165Z,5.50
2023-03-06T19:43:53.804Z,5.80
2023-03-06T19:46:22.947Z,6.53
2023-03-06T19:48:55.039Z,6.45
2023-03-06T19:51:22.351Z,5.30
2023-03-06T19:53:49.599Z,6.07
2023-03-06T19:56:20.639Z,5.70
2023-03-06T19:58:48.079Z,5.88
2023-03-06T20:01:20.528Z,5.97
2023-03-06T20:03:48.048Z,5.97
2023-03-06T20:06:18.510Z,6.40
2023-03-06T20:08:46.814Z,5.63
2023-03-06T20:11:26.101Z,5.13
2023-03-06T20:13:54.121Z,5.68
2023-03-06T20:16:21.356Z,5.43
2023-03-06T20:18:48.549Z,5.90
2023-03-06T20:21:16.908Z,5.32
2023-03-06T20:23:44.252Z,6.35
2023-03-06T20:26:13.740Z,6.25
2023-03-06T20:28:42.428Z,5.90
2023-03-06T20:31:18.271Z,5.25
2023-03-06T20:33:51.001Z,5.82
2023-03-06T20:36:24.004Z,5.32
2023-03-06T20:38:51.577Z,5.63
2023-03-06T20:41:25.224Z,5.35
2023-03-06T20:43:53.203Z,5.80
2023-03-06T20:46:22.194Z,5.43
2023-03-06T20:48:52.207Z,5.45
2023-03-06T20:51:22.357Z,5.25
2023-03-06T20:53:51.779Z,5.45
2023-03-06T20:56:21.466Z,4.97
2023-03-06T20:58:48.719Z,5.57
2023-03-06T21:01:24.747Z,5.15
2023-03-06T21:03:52.363Z,5.53
2023-03-06T21:06:20.378Z,4.57
2023-03-06T21:08:47.745Z,5.32
2023-03-06T21:11:15.879Z,4.55
2023-03-06T21:13:43.453Z,5.47
2023-03-06T21:16:17.010Z,5.47
2023-03-06T21:18:44.817Z,5.25
2023-03-06T21:21:14.972Z,5.13
2023-03-06T21:23:42.538Z,5.40
2023-03-06T21:26:14.613Z,5.20
2023-03-06T21:28:42.205Z,5.93
2023-03-06T21:31:11.575Z,5.53
2023-03-06T21:33:39.470Z,5.45
2023-03-06T21:36:07.560Z,5.80
2023-03-06T21:38:34.940Z,5.10
2023-03-06T21:41:08.535Z,5.72
2023-03-06T21:43:35.797Z,5.60
2023-03-06T21:46:03.415Z,5.78
2023-03-06T21:48:31.205Z,5.50
2023-03-06T21:51:09.828Z,5.40
2023-03-06T21:53:37.737Z,5.30
2023-03-06T21:56:05.473Z,5.85
2023-03-06T21:58:33.063Z,5.15
2023-03-06T22:01:00.467Z,5.82
2023-03-06T22:03:31.060Z,5.40
2023-03-06T22:06:11.987Z,6.78
2023-03-06T22:08:40.476Z,6.20
2023-03-06T22:11:10.117Z,5.78
2023-03-06T22:13:37.616Z,5.88
2023-03-06T22:16:05.742Z,5.57
2023-03-06T22:18:33.685Z,5.63
2023-03-06T22:21:09.406Z,6.45
2023-03-06T22:23:37.193Z,7.00
2023-03-06T22:26:06.558Z,5.32
2023-03-06T22:28:34.673Z,6.55
2023-03-06T22:31:26.976Z,5.50
2023-03-06T22:33:55.783Z,5.32
2023-03-06T22:36:24.054Z,5.50
2023-03-06T22:38:55.758Z,6.30
2023-03-06T22:41:23.520Z,5.93
2023-03-06T22:43:50.839Z,6.00
2023-03-06T22:46:18.475Z,7.03
2023-03-06T22:48:46.053Z,6.60
2023-03-06T22:51:15.983Z,7.20
2023-03-06T22:53:43.852Z,6.47
2023-03-06T22:56:14.215Z,6.45
2023-03-06T22:58:41.497Z,5.90
2023-03-06T23:01:17.271Z,6.60
2023-03-06T23:03:46.848Z,6.00
2023-03-06T23:06:22.719Z,6.22
2023-03-06T23:09:17.399Z,6.85
2023-03-06T23:12:03.195Z,6.75
2023-03-06T23:14:51.076Z,5.78
2023-03-06T23:17:36.852Z,6.65
2023-03-06T23:20:22.415Z,6.35
2023-03-06T23:23:08.330Z,6.80
2023-03-06T23:25:41.685Z,6.65
2023-03-06T23:28:10.281Z,6.10
2023-03-06T23:30:41.733Z,6.43
2023-03-06T23:33:09.646Z,6.07
2023-03-06T23:35:38.987Z,5.82
2023-03-06T23:38:06.623Z,6.03
2023-03-06T23:40:34.789Z,6.78
2023-03-06T23:43:02.821Z,6.65
2023-03-06T23:45:30.349Z,6.38
2023-03-06T23:47:58.142Z,6.47
2023-03-06T23:50:26.286Z,6.35
2023-03-06T23:52:54.295Z,6.43
2023-03-06T23:55:22.013Z,6.78
2023-03-06T23:57:49.406Z,5.57
